Time;durP1;ratioP1;P1;durP2;ratioP2;P2;SDS_P1;SDS_P2;PMS_P1;PMS_P2;Temp;Humidity;BMP_temperature;BMP_pressure;BME280_temperature;BME280_humidity;BME280_pressure;Samples;Min_cycle;Max_cycle;Signal;HPM_P1;HPM_P2
2023/08/28 00:02:00;;;;;;;2.53;2.33;;;19.90;52.70;;;;;;10428223;28;20232;-77
2023/08/28 00:07:04;;;;;;;2.23;2.10;;;19.90;52.60;;;;;;10430933;28;20232;-77
2023/08/28 00:12:09;;;;;;;2.10;1.90;;;19.90;52.60;;;;;;10434089;28;20261;-77
2023/08/28 00:17:12;;;;;;;2.67;2.47;;;20.00;52.90;;;;;;10426068;28;20312;-77
2023/08/28 00:22:15;;;;;;;2.60;2.40;;;20.00;52.50;;;;;;10424048;28;21056;-77
2023/08/28 00:27:19;;;;;;;2.70;2.17;;;20.00;52.20;;;;;;10434714;28;20232;-77
2023/08/28 00:32:23;;;;;;;2.57;2.20;;;20.00;52.40;;;;;;10421013;28;20618;-77
2023/08/28 00:37:26;;;;;;;2.57;2.07;;;20.00;52.50;;;;;;10421355;28;20252;-77
2023/08/28 00:42:30;;;;;;;2.57;2.37;;;20.00;52.60;;;;;;10420801;28;20227;-77
2023/08/28 00:47:34;;;;;;;2.53;2.33;;;20.10;52.70;;;;;;10416161;28;20301;-77
2023/08/28 00:52:38;;;;;;;2.60;2.40;;;20.10;52.40;;;;;;10419088;28;20576;-77
2023/08/28 00:57:43;;;;;;;3.57;2.77;;;20.10;52.40;;;;;;10416693;28;20226;-77
2023/08/28 01:02:46;;;;;;;2.57;2.37;;;20.20;52.50;;;;;;10415976;28;20324;-77
2023/08/28 01:07:56;;;;;;;2.50;2.40;;;20.20;52.30;;;;;;10424474;28;20288;-77
2023/08/28 01:13:08;;;;;;;2.77;2.57;;;20.20;52.30;;;;;;10416859;28;20229;-77
2023/08/28 01:18:12;;;;;;;2.90;2.70;;;20.20;52.20;;;;;;10422712;28;20716;-77
2023/08/28 01:23:22;;;;;;;2.33;2.23;;;20.10;51.70;;;;;;10434973;28;20681;-77
2023/08/28 01:28:27;;;;;;;3.00;2.80;;;20.10;52.20;;;;;;10424731;28;20319;-77
2023/08/28 01:33:30;;;;;;;2.57;2.37;;;20.10;52.10;;;;;;10419118;28;20229;-76
2023/08/28 01:38:37;;;;;;;3.93;2.87;;;20.00;52.00;;;;;;10414181;28;20237;-77
2023/08/28 01:43:46;;;;;;;2.73;2.53;;;20.00;52.20;;;;;;10418241;28;20229;-76
2023/08/28 01:48:52;;;;;;;2.83;2.63;;;20.00;52.30;;;;;;10418428;28;20225;-77
2023/08/28 01:53:56;;;;;;;2.73;2.53;;;20.00;52.10;;;;;;10419425;28;20221;-77
2023/08/28 01:59:02;;;;;;;3.30;2.50;;;20.00;52.00;;;;;;10422270;28;20236;-76
2023/08/28 02:04:06;;;;;;;2.50;2.40;;;20.00;51.90;;;;;;10416642;28;20277;-76
2023/08/28 02:09:09;;;;;;;2.30;2.10;;;19.90;51.70;;;;;;10419704;28;20309;-76
2023/08/28 02:14:13;;;;;;;2.30;2.10;;;19.90;51.80;;;;;;10414939;28;20230;-76
2023/08/28 02:19:17;;;;;;;2.27;2.07;;;19.90;51.70;;;;;;10419860;28;20244;-76
2023/08/28 02:24:20;;;;;;;2.40;2.20;;;19.90;51.50;;;;;;10420796;28;21016;-77
2023/08/28 02:29:24;;;;;;;2.03;1.93;;;19.90;51.50;;;;;;10424500;28;20949;-77
2023/08/28 02:34:27;;;;;;;2.20;2.10;;;19.90;51.60;;;;;;10429270;28;20236;-77
2023/08/28 02:39:31;;;;;;;2.10;2.00;;;20.00;51.50;;;;;;10423739;28;20226;-77
2023/08/28 02:44:36;;;;;;;2.17;1.97;;;20.00;51.50;;;;;;10423153;28;20296;-78
2023/08/28 02:49:39;;;;;;;2.30;2.10;;;20.00;51.80;;;;;;10415983;28;20236;-77
2023/08/28 02:54:42;;;;;;;2.30;2.17;;;20.00;51.70;;;;;;10419866;28;20263;-77
2023/08/28 02:59:47;;;;;;;2.73;2.50;;;20.00;51.40;;;;;;10425865;28;20222;-77
2023/08/28 03:04:50;;;;;;;2.27;2.07;;;20.00;51.50;;;;;;10413893;28;20221;-77
2023/08/28 03:09:54;;;;;;;2.70;2.50;;;20.00;51.40;;;;;;10426210;28;20225;-77
2023/08/28 03:14:59;;;;;;;2.60;2.40;;;20.00;51.20;;;;;;10428026;28;20225;-78
2023/08/28 03:20:02;;;;;;;2.50;2.30;;;20.00;51.40;;;;;;10427974;28;20711;-77
2023/08/28 03:25:09;;;;;;;2.63;2.43;;;20.00;51.30;;;;;;10425676;28;20308;-77
2023/08/28 03:30:14;;;;;;;3.83;2.50;;;20.00;51.30;;;;;;10439438;28;20320;-77
2023/08/28 03:35:17;;;;;;;2.67;2.47;;;20.00;51.50;;;;;;10429164;28;20313;-77
2023/08/28 03:40:24;;;;;;;2.77;2.53;;;20.00;51.40;;;;;;10435327;28;20942;-77
2023/08/28 03:45:29;;;;;;;2.90;2.70;;;20.00;51.50;;;;;;10439011;28;21272;-77
2023/08/28 03:50:33;;;;;;;4.13;3.60;;;19.90;51.30;;;;;;10426213;28;20323;-77
2023/08/28 03:55:36;;;;;;;5.57;3.60;;;19.90;51.30;;;;;;10425404;28;20240;-77
2023/08/28 04:00:41;;;;;;;3.33;2.97;;;19.90;51.20;;;;;;10432147;28;20224;-77
2023/08/28 04:05:45;;;;;;;3.53;3.13;;;19.80;51.40;;;;;;10429547;28;20312;-77
2023/08/28 04:10:48;;;;;;;3.60;3.30;;;19.80;51.30;;;;;;10428202;28;20226;-77
2023/08/28 04:15:53;;;;;;;3.43;3.23;;;19.80;51.30;;;;;;10429780;28;20235;-76
2023/08/28 04:20:56;;;;;;;3.50;3.20;;;19.70;51.30;;;;;;10439727;28;20325;-77
2023/08/28 04:26:00;;;;;;;4.47;3.00;;;19.70;51.50;;;;;;10428543;28;20333;-76
2023/08/28 04:31:04;;;;;;;3.27;3.03;;;19.70;51.80;;;;;;10430117;28;20630;-76
2023/08/28 04:36:07;;;;;;;3.37;3.07;;;19.70;52.00;;;;;;10425614;28;20728;-76
2023/08/28 04:41:11;;;;;;;3.27;2.93;;;19.70;51.80;;;;;;10433529;28;20282;-76
2023/08/28 04:46:15;;;;;;;3.10;2.90;;;19.70;51.80;;;;;;10423662;28;20235;-76
2023/08/28 04:51:19;;;;;;;3.30;3.10;;;19.80;51.80;;;;;;10428129;28;20229;-77
2023/08/28 04:56:22;;;;;;;3.40;3.10;;;19.80;51.70;;;;;;10424372;28;20713;-76
2023/08/28 05:01:26;;;;;;;3.90;3.60;;;19.80;51.60;;;;;;10422681;28;20596;-76
2023/08/28 05:06:30;;;;;;;3.17;2.87;;;19.80;51.60;;;;;;10422253;28;20309;-77
2023/08/28 05:11:33;;;;;;;3.30;3.07;;;19.80;51.40;;;;;;10425877;28;20857;-77
2023/08/28 05:16:37;;;;;;;3.17;2.93;;;19.80;51.30;;;;;;10425782;28;20227;-77
2023/08/28 05:21:41;;;;;;;2.93;2.73;;;19.80;51.10;;;;;;10423152;28;20229;-77
2023/08/28 05:26:44;;;;;;;3.07;2.83;;;19.70;51.30;;;;;;10428491;28;21090;-77
2023/08/28 05:31:48;;;;;;;3.27;3.07;;;19.70;51.30;;;;;;10422796;28;20228;-77
2023/08/28 05:36:51;;;;;;;3.17;2.80;;;19.70;51.40;;;;;;10435829;28;20288;-77
2023/08/28 05:41:55;;;;;;;3.13;2.93;;;19.70;51.50;;;;;;10446050;28;20304;-77
2023/08/28 05:47:00;;;;;;;3.40;2.90;;;19.70;51.60;;;;;;10443392;28;20249;-77
2023/08/28 05:52:05;;;;;;;2.83;2.63;;;19.60;51.40;;;;;;10449598;28;20253;-78
2023/08/28 05:57:08;;;;;;;3.13;2.93;;;19.60;51.60;;;;;;10453068;28;20501;-78
2023/08/28 06:02:13;;;;;;;2.80;2.60;;;19.60;51.40;;;;;;10450474;28;20755;-78
2023/08/28 06:07:17;;;;;;;2.60;2.40;;;19.60;51.50;;;;;;10444311;28;20256;-74
2023/08/28 06:12:20;;;;;;;2.43;2.30;;;19.50;51.00;;;;;;10426797;28;20267;-74
2023/08/28 06:17:26;;;;;;;3.30;2.80;;;19.40;51.10;;;;;;10428308;28;20230;-74
2023/08/28 06:22:29;;;;;;;2.97;2.73;;;19.40;51.30;;;;;;10429026;28;20298;-74
2023/08/28 06:27:32;;;;;;;3.53;3.23;;;19.40;51.30;;;;;;10433361;28;20580;-73
2023/08/28 06:32:37;;;;;;;3.40;3.10;;;19.30;51.30;;;;;;10432654;28;20263;-74
2023/08/28 06:37:40;;;;;;;3.47;3.17;;;19.30;51.40;;;;;;10437413;28;20915;-73
2023/08/28 06:42:43;;;;;;;3.27;3.00;;;19.20;51.20;;;;;;10429085;28;20383;-74
2023/08/28 06:47:48;;;;;;;3.60;3.30;;;19.10;51.40;;;;;;10432563;28;20231;-74
2023/08/28 06:52:51;;;;;;;3.87;3.23;;;19.10;52.00;;;;;;10432645;28;20979;-74
2023/08/28 06:58:00;;;;;;;3.57;2.87;;;19.10;51.80;;;;;;10432722;28;20224;-74
2023/08/28 07:03:05;;;;;;;3.37;3.17;;;19.10;52.00;;;;;;10434511;28;20240;-72
2023/08/28 07:08:09;;;;;;;4.77;3.50;;;19.10;52.30;;;;;;10443768;28;20252;-72
2023/08/28 07:13:12;;;;;;;3.47;3.17;;;19.20;52.20;;;;;;10440720;28;20343;-73
2023/08/28 07:18:17;;;;;;;3.70;3.40;;;19.20;52.30;;;;;;10440866;28;20237;-74
2023/08/28 07:23:20;;;;;;;3.33;2.90;;;19.20;52.50;;;;;;10441548;28;20225;-74
2023/08/28 07:28:24;;;;;;;4.33;3.50;;;19.20;52.20;;;;;;10438640;28;20225;-74
2023/08/28 07:33:30;;;;;;;4.00;3.63;;;19.20;52.20;;;;;;10441030;28;20228;-72
2023/08/28 07:38:33;;;;;;;3.80;3.50;;;19.20;52.30;;;;;;10442280;28;20233;-75
2023/08/28 07:43:36;;;;;;;3.47;3.20;;;19.30;52.30;;;;;;10429608;28;20298;-74
2023/08/28 07:48:41;;;;;;;2.90;2.70;;;19.30;52.10;;;;;;10433086;28;20228;-73
2023/08/28 07:53:49;;;;;;;2.77;2.57;;;19.30;52.20;;;;;;10439263;28;20287;-74
2023/08/28 07:58:52;;;;;;;2.50;2.33;;;19.30;52.10;;;;;;10424101;28;20253;-74
2023/08/28 08:03:57;;;;;;;2.27;2.07;;;19.30;52.20;;;;;;10432122;28;20217;-73
2023/08/28 08:09:00;;;;;;;2.40;2.20;;;19.30;52.60;;;;;;10425095;28;20260;-73
2023/08/28 08:14:04;;;;;;;2.10;2.00;;;19.30;52.10;;;;;;10425322;28;20223;-74
2023/08/28 08:19:08;;;;;;;2.40;2.20;;;19.30;52.00;;;;;;10430985;28;20237;-74
2023/08/28 08:24:11;;;;;;;2.23;2.03;;;19.30;52.40;;;;;;10434209;28;20231;-75
2023/08/28 08:29:15;;;;;;;2.87;1.80;;;19.30;52.30;;;;;;10430313;28;20311;-74
2023/08/28 08:34:19;;;;;;;1.70;1.60;;;19.30;52.00;;;;;;10429922;28;20303;-74
2023/08/28 08:39:24;;;;;;;1.50;1.40;;;19.30;51.70;;;;;;10424402;28;20334;-75
2023/08/28 08:44:27;;;;;;;1.70;1.60;;;19.30;51.70;;;;;;10428926;28;20604;-75
2023/08/28 08:49:33;;;;;;;1.70;1.60;;;19.30;51.70;;;;;;10425944;28;20229;-75
2023/08/28 08:54:40;;;;;;;1.47;1.37;;;19.30;51.70;;;;;;10424354;28;20779;-74
2023/08/28 08:59:43;;;;;;;1.40;1.30;;;19.20;51.70;;;;;;10423885;28;20311;-75
2023/08/28 09:04:49;;;;;;;1.50;1.40;;;19.30;51.90;;;;;;10425413;28;20842;-76
2023/08/28 09:09:53;;;;;;;1.60;1.50;;;19.30;52.00;;;;;;10438851;28;20282;-74
2023/08/28 09:14:57;;;;;;;1.50;1.40;;;19.30;52.10;;;;;;10435297;28;20261;-74
2023/08/28 09:20:14;;;;;;;1.50;1.40;;;19.40;52.10;;;;;;10436988;28;20588;-72
2023/08/28 09:25:19;;;;;;;1.57;1.47;;;19.40;52.20;;;;;;10441185;28;20221;-73
2023/08/28 09:30:30;;;;;;;1.47;1.37;;;19.50;52.30;;;;;;10436755;28;20283;-74
2023/08/28 09:35:38;;;;;;;1.60;1.33;;;19.50;52.40;;;;;;10428553;28;20240;-73
2023/08/28 09:40:42;;;;;;;2.10;1.40;;;19.60;52.20;;;;;;10436071;28;20225;-75
2023/08/28 09:45:46;;;;;;;1.43;1.37;;;19.60;52.00;;;;;;10435744;28;20236;-74
2023/08/28 09:50:53;;;;;;;1.60;1.50;;;19.70;51.90;;;;;;10429028;28;20585;-74
2023/08/28 09:55:56;;;;;;;1.50;1.40;;;19.70;51.50;;;;;;10438488;28;20228;-73
2023/08/28 10:01:00;;;;;;;1.77;1.67;;;19.70;51.20;;;;;;10441027;28;20235;-74
2023/08/28 10:06:06;;;;;;;1.60;1.50;;;19.60;51.40;;;;;;10442747;28;20783;-74
2023/08/28 10:11:10;;;;;;;2.00;1.43;;;19.60;51.50;;;;;;10435425;28;20243;-72
2023/08/28 10:16:20;;;;;;;2.00;1.87;;;19.50;51.70;;;;;;10436910;28;20239;-73
2023/08/28 10:21:25;;;;;;;1.63;1.53;;;19.50;52.30;;;;;;10439738;28;20224;-74
2023/08/28 10:26:30;;;;;;;1.50;1.40;;;19.40;52.20;;;;;;10442438;28;20237;-72
2023/08/28 10:31:35;;;;;;;1.53;1.43;;;19.40;52.70;;;;;;10442480;28;20229;-72
2023/08/28 10:36:42;;;;;;;1.33;1.33;;;19.50;52.70;;;;;;10439704;28;20321;-73
2023/08/28 10:42:06;;;;;;;1.70;1.60;;;19.60;52.70;;;;;;10444892;28;20325;-72
2023/08/28 10:47:10;;;;;;;1.23;1.23;;;19.70;52.60;;;;;;10460429;28;20775;-77
2023/08/28 10:52:14;;;;;;;1.67;1.57;;;19.80;53.10;;;;;;10445654;28;20227;-76
2023/08/28 10:57:25;;;;;;;1.43;1.33;;;20.00;52.40;;;;;;10449970;28;20260;-73
2023/08/28 11:03:06;;;;;;;1.20;1.17;;;20.10;52.30;;;;;;10450199;28;20305;-73
2023/08/28 11:08:13;;;;;;;2.20;1.40;;;20.30;51.50;;;;;;10449828;28;20221;-73
2023/08/28 11:13:24;;;;;;;1.00;1.00;;;20.60;52.00;;;;;;10449861;28;20231;-73
2023/08/28 11:18:29;;;;;;;1.57;1.20;;;20.70;49.40;;;;;;10411561;28;21140;-73
2023/08/28 11:23:37;;;;;;;1.00;1.00;;;20.70;50.10;;;;;;10409330;28;20728;-73
2023/08/28 11:28:45;;;;;;;1.37;1.37;;;20.80;49.40;;;;;;10417811;28;20272;-73
2023/08/28 11:33:50;;;;;;;1.10;1.10;;;20.80;49.40;;;;;;10450666;28;20263;-72
2023/08/28 11:38:55;;;;;;;1.50;1.40;;;20.90;49.50;;;;;;10449836;28;20231;-73
2023/08/28 11:43:59;;;;;;;1.60;1.50;;;20.90;49.50;;;;;;10450007;28;20238;-73
2023/08/28 11:49:07;;;;;;;2.43;1.40;;;20.90;49.50;;;;;;10448027;28;20298;-75
2023/08/28 11:54:11;;;;;;;1.40;1.30;;;21.00;48.60;;;;;;10447576;28;20224;-73
2023/08/28 11:59:19;;;;;;;1.20;1.10;;;21.00;48.40;;;;;;10447478;28;20232;-72
2023/08/28 12:04:23;;;;;;;1.40;1.30;;;21.00;49.60;;;;;;10444325;28;20221;-73
2023/08/28 12:09:28;;;;;;;1.30;1.20;;;21.00;48.30;;;;;;10447134;28;20264;-73
2023/08/28 12:14:34;;;;;;;1.07;1.07;;;21.00;48.30;;;;;;10447418;28;20229;-73
2023/08/28 12:19:38;;;;;;;1.40;1.30;;;21.10;47.60;;;;;;10447125;28;20302;-74
2023/08/28 12:24:47;;;;;;;1.50;1.40;;;21.10;48.20;;;;;;10447326;28;20217;-74
2023/08/28 12:29:50;;;;;;;1.40;1.30;;;21.10;47.60;;;;;;10446676;28;20250;-73
2023/08/28 12:34:53;;;;;;;1.20;1.20;;;21.10;48.40;;;;;;10447040;28;20221;-74
2023/08/28 12:39:58;;;;;;;1.33;1.30;;;21.10;48.40;;;;;;10444603;28;20228;-73
2023/08/28 12:45:01;;;;;;;1.50;1.40;;;21.10;47.10;;;;;;10444921;28;20225;-73
2023/08/28 12:50:05;;;;;;;1.50;1.40;;;21.00;47.40;;;;;;10430557;28;20255;-73
2023/08/28 12:55:10;;;;;;;1.50;1.40;;;21.00;47.10;;;;;;10447462;28;20236;-73
2023/08/28 13:00:16;;;;;;;1.80;1.53;;;20.90;46.10;;;;;;10446489;28;20323;-73
2023/08/28 13:05:20;;;;;;;1.87;1.40;;;20.80;46.30;;;;;;10446874;28;20721;-73
2023/08/28 13:10:25;;;;;;;1.60;1.50;;;20.80;46.70;;;;;;10443355;28;20228;-73
2023/08/28 13:15:28;;;;;;;1.70;1.60;;;20.70;46.10;;;;;;10403950;28;20222;-72
2023/08/28 13:20:31;;;;;;;1.57;1.47;;;20.70;47.00;;;;;;10404257;28;20234;-72
2023/08/28 13:25:36;;;;;;;1.53;1.43;;;20.60;46.90;;;;;;10405035;28;20305;-72
2023/08/28 13:30:39;;;;;;;1.30;1.30;;;20.60;46.60;;;;;;10404009;28;20325;-73
2023/08/28 13:35:42;;;;;;;1.20;1.20;;;20.50;47.20;;;;;;10403876;28;20222;-73
2023/08/28 13:40:47;;;;;;;1.30;1.30;;;20.50;47.20;;;;;;10404723;28;20233;-73
2023/08/28 13:45:51;;;;;;;1.50;1.40;;;20.50;47.30;;;;;;10421620;28;20235;-73
2023/08/28 13:50:54;;;;;;;1.50;1.40;;;20.50;47.60;;;;;;10445204;28;20249;-72
2023/08/28 13:55:59;;;;;;;1.70;1.60;;;20.50;47.70;;;;;;10445208;28;20239;-73
2023/08/28 14:01:03;;;;;;;2.23;1.53;;;20.40;47.40;;;;;;10444632;28;20228;-73
2023/08/28 14:06:07;;;;;;;1.53;1.43;;;20.40;47.50;;;;;;10444443;28;20288;-71
2023/08/28 14:11:11;;;;;;;1.57;1.47;;;20.30;47.80;;;;;;10443496;28;20522;-72
2023/08/28 14:16:14;;;;;;;1.77;1.67;;;20.20;48.50;;;;;;10443839;28;20788;-72
2023/08/28 14:21:18;;;;;;;1.70;1.60;;;20.10;47.80;;;;;;10443261;28;20236;-72
2023/08/28 14:26:22;;;;;;;1.97;1.87;;;20.00;47.90;;;;;;10444201;28;20763;-72
2023/08/28 14:31:25;;;;;;;1.90;1.80;;;19.80;48.50;;;;;;10444374;28;20337;-72
2023/08/28 14:36:29;;;;;;;2.27;2.07;;;19.70;48.50;;;;;;10444317;28;20236;-72
2023/08/28 14:41:34;;;;;;;2.00;1.90;;;19.60;48.40;;;;;;10443506;28;20240;-71
2023/08/28 14:46:37;;;;;;;2.23;2.03;;;19.50;48.90;;;;;;10443886;28;20256;-72
2023/08/28 14:51:40;;;;;;;2.40;2.00;;;19.50;49.00;;;;;;10443744;28;20609;-70
2023/08/28 14:56:44;;;;;;;2.20;2.00;;;19.40;49.20;;;;;;10443458;28;20224;-71
2023/08/28 15:01:49;;;;;;;2.00;1.90;;;19.40;49.30;;;;;;10443548;28;20235;-72
2023/08/28 15:06:52;;;;;;;2.10;2.00;;;19.40;49.10;;;;;;10443577;28;20728;-71
2023/08/28 15:11:59;;;;;;;2.50;2.30;;;19.30;49.20;;;;;;10443469;28;20232;-71
2023/08/28 15:17:02;;;;;;;2.43;2.23;;;19.30;49.40;;;;;;10442664;28;20236;-72
2023/08/28 15:22:05;;;;;;;2.67;2.47;;;19.20;49.10;;;;;;10442809;28;20284;-74
2023/08/28 15:27:10;;;;;;;2.50;2.30;;;19.20;50.00;;;;;;10450645;28;20698;-75
2023/08/28 15:32:13;;;;;;;2.80;2.30;;;19.30;50.40;;;;;;10450392;28;20240;-74
2023/08/28 15:37:16;;;;;;;2.57;2.40;;;19.20;49.80;;;;;;10450099;28;20327;-75
2023/08/28 15:42:21;;;;;;;2.50;2.40;;;19.20;49.90;;;;;;10450791;28;20241;-75
2023/08/28 15:47:24;;;;;;;2.73;2.53;;;19.20;50.30;;;;;;10449968;28;20235;-75
2023/08/28 15:52:28;;;;;;;2.57;2.37;;;19.20;49.90;;;;;;10450051;28;20235;-75
2023/08/28 15:57:33;;;;;;;2.27;2.17;;;19.10;49.60;;;;;;10449732;28;20232;-75
2023/08/28 16:02:36;;;;;;;2.80;2.60;;;19.10;50.10;;;;;;10449086;28;20232;-75
2023/08/28 16:07:39;;;;;;;2.40;2.30;;;19.10;49.80;;;;;;10438522;28;20237;-75
2023/08/28 16:12:44;;;;;;;2.60;2.40;;;19.10;49.90;;;;;;10438353;28;20227;-75
2023/08/28 16:17:47;;;;;;;2.97;2.77;;;19.00;49.70;;;;;;10448477;28;20232;-75
2023/08/28 16:22:50;;;;;;;2.73;2.57;;;19.00;49.50;;;;;;10448884;28;20240;-75
2023/08/28 16:27:55;;;;;;;2.90;2.70;;;18.90;49.50;;;;;;10448109;28;20231;-75
2023/08/28 16:32:58;;;;;;;2.20;2.10;;;18.80;49.40;;;;;;10447117;28;20300;-75
2023/08/28 16:38:01;;;;;;;2.50;2.30;;;18.80;49.20;;;;;;10447978;28;20256;-75
2023/08/28 16:43:06;;;;;;;2.37;2.17;;;18.60;49.40;;;;;;10447366;28;20249;-75
2023/08/28 16:48:13;;;;;;;3.30;2.50;;;18.50;49.80;;;;;;10447459;28;20233;-75
2023/08/28 16:53:17;;;;;;;2.80;2.37;;;18.50;49.80;;;;;;10447739;28;20226;-75
2023/08/28 16:58:21;;;;;;;2.30;2.20;;;18.40;49.80;;;;;;10447519;28;20239;-76
2023/08/28 17:03:26;;;;;;;2.90;2.60;;;18.40;49.80;;;;;;10447174;28;20229;-75
2023/08/28 17:08:29;;;;;;;2.63;2.43;;;18.30;49.60;;;;;;10446578;28;21015;-76
2023/08/28 17:13:34;;;;;;;3.90;2.63;;;18.30;49.70;;;;;;10446553;28;20276;-76
2023/08/28 17:18:39;;;;;;;2.53;2.33;;;18.20;49.80;;;;;;10446315;28;20654;-76
2023/08/28 17:23:42;;;;;;;2.57;2.37;;;18.20;49.70;;;;;;10445461;28;20241;-78
2023/08/28 17:28:46;;;;;;;2.60;2.40;;;18.20;49.80;;;;;;10444604;28;21059;-75
2023/08/28 17:33:50;;;;;;;3.37;2.70;;;18.20;49.70;;;;;;10444511;28;20225;-75
2023/08/28 17:38:56;;;;;;;2.70;2.50;;;18.20;49.50;;;;;;10445666;28;20800;-75
2023/08/28 17:44:00;;;;;;;4.20;2.60;;;18.20;49.70;;;;;;10445221;28;20926;-74
2023/08/28 17:49:04;;;;;;;2.50;2.30;;;18.20;50.00;;;;;;10444607;28;20233;-76
2023/08/28 17:54:07;;;;;;;2.50;2.40;;;18.10;49.60;;;;;;10444016;28;20239;-75
2023/08/28 17:59:12;;;;;;;2.70;2.30;;;18.10;49.50;;;;;;10444924;28;20314;-74
2023/08/28 18:04:15;;;;;;;2.53;2.37;;;18.10;49.50;;;;;;10437288;28;20237;-75
2023/08/28 18:09:18;;;;;;;3.40;2.33;;;18.10;49.40;;;;;;10441696;28;20236;-75
2023/08/28 18:14:23;;;;;;;2.70;2.50;;;18.10;49.20;;;;;;10444649;28;20229;-75
2023/08/28 18:19:27;;;;;;;2.40;2.30;;;18.10;48.90;;;;;;10444830;28;20271;-74
2023/08/28 18:24:30;;;;;;;2.53;2.33;;;18.10;49.10;;;;;;10444612;28;20308;-74
2023/08/28 18:29:34;;;;;;;2.63;2.43;;;18.00;49.00;;;;;;10444082;28;20229;-75
2023/08/28 18:34:38;;;;;;;2.90;2.30;;;18.00;49.40;;;;;;10443971;28;20735;-73
2023/08/28 18:39:41;;;;;;;2.70;2.50;;;18.00;49.30;;;;;;10443702;28;20621;-74
2023/08/28 18:44:46;;;;;;;2.93;2.73;;;18.00;49.40;;;;;;10444036;28;20233;-74
2023/08/28 18:49:49;;;;;;;3.40;2.73;;;17.90;49.70;;;;;;10444053;28;20255;-74
2023/08/28 18:54:52;;;;;;;2.87;2.70;;;17.90;49.40;;;;;;10443523;28;20224;-74
2023/08/28 18:59:57;;;;;;;3.17;2.97;;;17.80;49.40;;;;;;10452039;28;20720;-74
2023/08/28 19:05:00;;;;;;;2.67;2.47;;;17.70;49.90;;;;;;10451541;28;20225;-73
2023/08/28 19:10:04;;;;;;;3.20;2.90;;;17.70;49.70;;;;;;10451194;28;20308;-74
2023/08/28 19:15:10;;;;;;;3.20;2.90;;;17.60;49.80;;;;;;10449410;28;20298;-75
2023/08/28 19:20:13;;;;;;;3.23;3.03;;;17.50;50.20;;;;;;10450242;28;20237;-75
2023/08/28 19:25:17;;;;;;;2.80;2.60;;;17.40;50.00;;;;;;10450908;28;20237;-74
2023/08/28 19:30:22;;;;;;;3.43;2.93;;;17.40;50.40;;;;;;10450184;28;20811;-74
2023/08/28 19:35:25;;;;;;;3.13;2.93;;;17.30;50.60;;;;;;10450346;28;20225;-74
2023/08/28 19:40:28;;;;;;;3.07;2.87;;;17.30;50.50;;;;;;10449473;28;20725;-76
2023/08/28 19:45:33;;;;;;;2.70;2.50;;;17.30;50.50;;;;;;10447631;28;20236;-73
2023/08/28 19:50:36;;;;;;;2.60;2.50;;;17.20;50.50;;;;;;10448439;28;20225;-74
2023/08/28 19:55:39;;;;;;;2.53;2.43;;;17.10;50.60;;;;;;10447668;28;20256;-73
2023/08/28 20:00:47;;;;;;;2.93;2.73;;;17.10;50.60;;;;;;10447944;28;20225;-74
2023/08/28 20:05:50;;;;;;;2.40;2.30;;;17.00;50.80;;;;;;10447383;28;20640;-73
2023/08/28 20:10:54;;;;;;;2.43;2.23;;;17.00;50.50;;;;;;10445717;28;20812;-75
2023/08/28 20:15:58;;;;;;;2.30;2.20;;;17.00;50.60;;;;;;10447772;28;20263;-75
2023/08/28 20:21:02;;;;;;;1.93;1.83;;;16.90;51.00;;;;;;10448556;28;20227;-75
2023/08/28 20:26:06;;;;;;;1.80;1.70;;;16.80;50.70;;;;;;10446730;28;20636;-75
2023/08/28 20:31:10;;;;;;;1.90;1.80;;;16.80;50.90;;;;;;10447533;28;20316;-75
2023/08/28 20:36:13;;;;;;;1.87;1.77;;;16.80;51.20;;;;;;10447604;28;20294;-76
2023/08/28 20:41:17;;;;;;;1.90;1.80;;;16.70;51.10;;;;;;10449318;28;20240;-76
2023/08/28 20:46:24;;;;;;;2.00;1.90;;;16.70;51.00;;;;;;10449286;28;20248;-76
2023/08/28 20:51:27;;;;;;;1.73;1.63;;;16.70;51.70;;;;;;10448267;28;20304;-75
2023/08/28 20:56:30;;;;;;;1.90;1.80;;;16.60;51.20;;;;;;10448591;28;20232;-75
2023/08/28 21:01:37;;;;;;;2.07;1.50;;;16.60;51.40;;;;;;10448115;28;20727;-75
2023/08/28 21:06:40;;;;;;;1.90;1.70;;;16.60;51.70;;;;;;10448101;28;20232;-76
2023/08/28 21:11:44;;;;;;;1.60;1.50;;;16.60;51.70;;;;;;10448053;28;20246;-76
2023/08/28 21:16:48;;;;;;;2.00;1.90;;;16.50;51.60;;;;;;10448217;28;20228;-76
2023/08/28 21:21:51;;;;;;;2.00;1.90;;;16.50;52.00;;;;;;10447609;28;20713;-76
2023/08/28 21:26:55;;;;;;;1.80;1.70;;;16.50;51.60;;;;;;10447456;28;20241;-76
2023/08/28 21:31:59;;;;;;;1.70;1.60;;;16.60;51.80;;;;;;10447242;28;20907;-77
2023/08/28 21:37:03;;;;;;;1.83;1.70;;;16.50;52.20;;;;;;10447417;28;20635;-76
2023/08/28 21:42:06;;;;;;;1.77;1.67;;;16.60;51.90;;;;;;10447828;28;20228;-76
2023/08/28 21:47:11;;;;;;;1.90;1.80;;;16.60;51.70;;;;;;10447237;28;20228;-77
2023/08/28 21:52:14;;;;;;;2.00;1.90;;;16.60;51.80;;;;;;10447410;28;20260;-77
2023/08/28 21:57:17;;;;;;;1.93;1.83;;;16.60;51.70;;;;;;10446830;28;20233;-76
2023/08/28 22:02:26;;;;;;;1.90;1.80;;;16.60;51.70;;;;;;10446474;28;20239;-76
2023/08/28 22:07:31;;;;;;;1.53;1.53;;;16.60;52.20;;;;;;10446250;28;20645;-76
2023/08/28 22:12:34;;;;;;;1.77;1.67;;;16.60;52.10;;;;;;10446494;28;20751;-76
2023/08/28 22:17:46;;;;;;;1.90;1.80;;;16.60;51.80;;;;;;10446698;28;20241;-76
2023/08/28 22:22:49;;;;;;;2.00;1.90;;;16.50;52.60;;;;;;10445872;28;20225;-75
2023/08/28 22:27:53;;;;;;;2.30;2.20;;;16.60;52.00;;;;;;10446060;28;20227;-76
2023/08/28 22:32:57;;;;;;;2.70;2.50;;;16.60;51.80;;;;;;10445319;28;20253;-76
2023/08/28 22:38:01;;;;;;;2.40;2.30;;;16.60;52.00;;;;;;10445238;28;20229;-76
2023/08/28 22:43:05;;;;;;;2.20;2.10;;;16.50;51.60;;;;;;10445660;28;20225;-76
2023/08/28 22:48:10;;;;;;;2.37;2.27;;;16.50;51.50;;;;;;10446017;28;20670;-76
2023/08/28 22:53:14;;;;;;;2.70;2.53;;;16.50;51.60;;;;;;10445847;28;20253;-75
2023/08/28 22:58:19;;;;;;;2.40;2.00;;;16.40;51.20;;;;;;10446181;28;20237;-76
2023/08/28 23:03:23;;;;;;;2.27;2.17;;;16.40;51.30;;;;;;10445192;28;20238;-76
2023/08/28 23:08:27;;;;;;;2.30;2.20;;;16.40;50.90;;;;;;10445284;28;20605;-76
2023/08/28 23:13:30;;;;;;;1.80;1.70;;;16.30;50.70;;;;;;10445270;28;20231;-76
2023/08/28 23:18:34;;;;;;;1.70;1.60;;;16.30;50.50;;;;;;10445424;28;20239;-76
2023/08/28 23:23:38;;;;;;;1.70;1.60;;;16.20;50.20;;;;;;10444991;28;20236;-76
2023/08/28 23:28:42;;;;;;;1.60;1.50;;;16.10;50.20;;;;;;10444041;28;20235;-75
2023/08/28 23:33:46;;;;;;;1.43;1.33;;;16.10;50.40;;;;;;10444905;28;20249;-76
2023/08/28 23:38:49;;;;;;;1.67;1.47;;;16.10;50.20;;;;;;10444314;28;20321;-76
2023/08/28 23:43:52;;;;;;;1.40;1.40;;;16.10;50.10;;;;;;10448009;28;20249;-75
2023/08/28 23:48:57;;;;;;;2.10;1.27;;;16.10;50.30;;;;;;10451550;28;20782;-75
2023/08/28 23:54:00;;;;;;;1.33;1.23;;;16.10;50.20;;;;;;10451496;28;20225;-75
2023/08/28 23:59:04;;;;;;;1.23;1.13;;;16.10;50.10;;;;;;10451940;28;20321;-76
